Time;durP1;ratioP1;P1;durP2;ratioP2;P2;SDS_P1;SDS_P2;PMS_P1;PMS_P2;Temp;Humidity;BMP_temperature;BMP_pressure;BME280_temperature;BME280_humidity;BME280_pressure;Samples;Min_cycle;Max_cycle;Signal;HPM_P1;HPM_P2
2023/04/21 00:00:34;;;;;;;13.17;10.37;;;;;;;;;;4976208;28;20187;-68
2023/04/21 00:03:40;;;;;;;15.93;11.57;;;;;;;;;;4975803;28;20226;-69
2023/04/21 00:06:45;;;;;;;14.67;11.67;;;;;;;;;;4975870;28;20187;-69
2023/04/21 00:09:49;;;;;;;15.10;11.57;;;;;;;;;;4976105;28;20183;-69
2023/04/21 00:12:53;;;;;;;14.60;11.80;;;;;;;;;;4975777;28;20528;-69
2023/04/21 00:15:57;;;;;;;14.07;11.60;;;;;;;;;;4963822;28;20531;-68
2023/04/21 00:19:05;;;;;;;16.50;11.77;;;;;;;;;;4975120;28;20186;-69
2023/04/21 00:22:13;;;;;;;13.87;10.53;;;;;;;;;;4975514;28;20215;-68
2023/04/21 00:25:17;;;;;;;13.70;9.70;;;;;;;;;;4975572;28;20538;-69
2023/04/21 00:28:22;;;;;;;14.53;9.77;;;;;;;;;;4963892;28;20187;-69
2023/04/21 00:31:27;;;;;;;16.53;11.27;;;;;;;;;;4974439;28;20223;-69
2023/04/21 00:34:31;;;;;;;12.43;10.10;;;;;;;;;;4974857;28;20190;-69
2023/04/21 00:37:35;;;;;;;13.70;10.90;;;;;;;;;;4974738;28;20194;-69
2023/04/21 00:40:41;;;;;;;13.33;10.47;;;;;;;;;;4975165;28;20566;-69
2023/04/21 00:44:02;;;;;;;14.47;10.43;;;;;;;;;;4974469;28;20222;-69
2023/04/21 00:47:09;;;;;;;12.77;9.77;;;;;;;;;;4975427;28;20646;-69
2023/04/21 00:50:13;;;;;;;13.40;10.43;;;;;;;;;;4975068;28;20198;-69
2023/04/21 00:53:18;;;;;;;14.53;10.53;;;;;;;;;;4974297;28;20182;-68
2023/04/21 00:56:22;;;;;;;13.77;10.73;;;;;;;;;;4974124;28;20650;-69
2023/04/21 00:59:26;;;;;;;13.57;9.40;;;;;;;;;;4962956;28;20199;-69
2023/04/21 01:02:33;;;;;;;13.43;10.53;;;;;;;;;;4974808;28;20560;-68
2023/04/21 01:05:37;;;;;;;14.33;10.20;;;;;;;;;;4974256;28;20210;-69
2023/04/21 01:08:42;;;;;;;14.00;10.77;;;;;;;;;;4973943;28;20203;-69
2023/04/21 01:12:04;;;;;;;13.63;10.47;;;;;;;;;;4973863;28;20222;-69
2023/04/21 01:15:08;;;;;;;11.70;9.60;;;;;;;;;;4974025;28;20179;-70
2023/04/21 01:18:15;;;;;;;13.87;10.73;;;;;;;;;;4973835;28;20175;-70
2023/04/21 01:21:20;;;;;;;14.27;10.80;;;;;;;;;;4962929;28;20215;-68
2023/04/21 01:24:37;;;;;;;13.40;10.83;;;;;;;;;;4974020;28;20206;-69
2023/04/21 01:27:42;;;;;;;13.00;10.30;;;;;;;;;;4973967;28;20635;-68
2023/04/21 01:30:46;;;;;;;12.50;10.17;;;;;;;;;;4962701;28;20214;-69
2023/04/21 01:33:50;;;;;;;12.83;10.33;;;;;;;;;;4963014;28;20179;-69
2023/04/21 01:36:54;;;;;;;12.73;9.93;;;;;;;;;;4973570;28;20179;-68
2023/04/21 01:40:04;;;;;;;13.10;10.57;;;;;;;;;;4973626;28;20183;-69
2023/04/21 01:43:11;;;;;;;14.00;10.03;;;;;;;;;;4973796;28;20199;-69
2023/04/21 01:46:19;;;;;;;16.33;10.37;;;;;;;;;;4962613;28;20167;-68
2023/04/21 01:49:23;;;;;;;12.30;8.70;;;;;;;;;;4962351;28;20187;-69
2023/04/21 01:52:27;;;;;;;11.33;9.57;;;;;;;;;;4973496;28;20222;-68
2023/04/21 01:55:31;;;;;;;15.83;11.57;;;;;;;;;;4976238;28;20191;-69
2023/04/21 01:58:35;;;;;;;12.33;10.50;;;;;;;;;;4977682;28;20183;-69
2023/04/21 02:01:40;;;;;;;15.20;10.80;;;;;;;;;;4977289;28;20223;-68
2023/04/21 02:04:44;;;;;;;18.83;11.57;;;;;;;;;;4977242;28;20210;-69
2023/04/21 02:07:48;;;;;;;13.10;10.33;;;;;;;;;;4977196;28;20206;-68
2023/04/21 02:10:52;;;;;;;13.23;10.93;;;;;;;;;;4977631;28;20217;-69
2023/04/21 02:13:56;;;;;;;14.43;11.50;;;;;;;;;;4966279;28;20182;-69
2023/04/21 02:17:02;;;;;;;17.23;10.97;;;;;;;;;;4977387;28;20182;-69
2023/04/21 02:20:07;;;;;;;14.43;11.03;;;;;;;;;;4977388;28;20523;-69
2023/04/21 02:23:11;;;;;;;14.13;10.50;;;;;;;;;;4977057;28;20630;-68
2023/04/21 02:26:17;;;;;;;14.20;11.70;;;;;;;;;;4977266;28;20170;-69
2023/04/21 02:29:21;;;;;;;16.00;12.00;;;;;;;;;;4976900;28;20531;-69
2023/04/21 02:32:25;;;;;;;15.80;11.77;;;;;;;;;;4965508;28;20222;-69
2023/04/21 02:35:32;;;;;;;14.03;10.80;;;;;;;;;;4965643;28;20187;-69
2023/04/21 02:38:36;;;;;;;14.70;11.20;;;;;;;;;;4977527;28;20179;-68
2023/04/21 02:41:40;;;;;;;14.77;11.27;;;;;;;;;;4976756;28;20218;-69
2023/04/21 02:44:44;;;;;;;15.77;11.63;;;;;;;;;;4976520;28;20207;-71
2023/04/21 02:47:48;;;;;;;16.70;11.70;;;;;;;;;;4965362;28;20665;-68
2023/04/21 02:50:52;;;;;;;16.63;12.77;;;;;;;;;;4976792;28;20673;-69
2023/04/21 02:53:56;;;;;;;18.43;13.73;;;;;;;;;;4977496;28;20183;-69
2023/04/21 02:57:00;;;;;;;18.03;12.10;;;;;;;;;;4965535;28;20175;-69
2023/04/21 03:00:06;;;;;;;17.10;12.37;;;;;;;;;;4965366;28;20182;-69
2023/04/21 03:03:10;;;;;;;15.57;10.97;;;;;;;;;;4965040;28;20183;-69
2023/04/21 03:06:14;;;;;;;15.60;11.80;;;;;;;;;;4976409;28;20211;-69
2023/04/21 03:09:19;;;;;;;16.43;11.73;;;;;;;;;;4977397;28;20534;-69
2023/04/21 03:12:23;;;;;;;15.70;11.83;;;;;;;;;;4976004;28;20222;-69
2023/04/21 03:15:28;;;;;;;16.23;12.00;;;;;;;;;;4975920;28;20187;-69
2023/04/21 03:18:34;;;;;;;16.30;12.20;;;;;;;;;;4975862;28;20182;-69
2023/04/21 03:21:38;;;;;;;17.90;13.70;;;;;;;;;;4975933;28;20587;-69
2023/04/21 03:24:42;;;;;;;19.30;14.00;;;;;;;;;;4976738;28;20202;-69
2023/04/21 03:27:47;;;;;;;18.83;12.87;;;;;;;;;;4976187;28;20627;-69
2023/04/21 03:30:51;;;;;;;17.30;12.47;;;;;;;;;;4975727;28;20218;-69
2023/04/21 03:33:55;;;;;;;16.03;12.27;;;;;;;;;;4976375;28;20527;-69
2023/04/21 03:36:59;;;;;;;17.17;12.00;;;;;;;;;;4976312;28;20187;-69
2023/04/21 03:40:07;;;;;;;15.90;12.07;;;;;;;;;;4975768;28;20190;-69
2023/04/21 03:43:12;;;;;;;18.77;12.33;;;;;;;;;;4964522;28;20183;-69
2023/04/21 03:46:21;;;;;;;17.27;12.80;;;;;;;;;;4975244;28;20210;-68
2023/04/21 03:49:25;;;;;;;16.73;12.77;;;;;;;;;;4976366;28;20203;-69
2023/04/21 03:52:29;;;;;;;18.27;13.03;;;;;;;;;;4976007;28;20222;-69
2023/04/21 03:55:33;;;;;;;16.53;12.63;;;;;;;;;;4964276;28;20187;-69
2023/04/21 03:58:37;;;;;;;18.07;13.10;;;;;;;;;;4975413;28;20175;-69
2023/04/21 04:01:42;;;;;;;17.30;12.73;;;;;;;;;;4975027;28;20218;-69
2023/04/21 04:04:46;;;;;;;18.57;12.93;;;;;;;;;;4975956;28;20207;-69
2023/04/21 04:07:50;;;;;;;22.07;14.57;;;;;;;;;;4973311;28;20218;-68
2023/04/21 04:10:54;;;;;;;23.33;14.97;;;;;;;;;;4964011;28;20219;-69
2023/04/21 04:13:58;;;;;;;17.67;13.67;;;;;;;;;;4975938;28;20183;-69
2023/04/21 04:17:02;;;;;;;13.87;10.77;;;;;;;;;;4975390;28;20206;-68
2023/04/21 04:20:07;;;;;;;12.53;9.37;;;;;;;;;;4973977;28;20198;-69
2023/04/21 04:23:11;;;;;;;13.13;9.20;;;;;;;;;;4985794;28;20642;-69
2023/04/21 04:26:16;;;;;;;12.70;9.87;;;;;;;;;;4975635;28;20202;-69
2023/04/21 04:29:21;;;;;;;14.50;10.10;;;;;;;;;;4974572;28;20665;-69
2023/04/21 04:32:28;;;;;;;15.70;11.07;;;;;;;;;;4975206;28;20226;-69
2023/04/21 04:35:32;;;;;;;13.40;10.30;;;;;;;;;;4975241;28;20179;-69
2023/04/21 04:38:37;;;;;;;14.70;10.23;;;;;;;;;;4985571;28;20630;-69
2023/04/21 04:41:41;;;;;;;12.47;10.07;;;;;;;;;;4974202;28;20689;-69
2023/04/21 04:44:46;;;;;;;13.30;10.97;;;;;;;;;;4975196;28;20202;-69
2023/04/21 04:47:50;;;;;;;15.03;10.53;;;;;;;;;;4974998;28;20183;-69
2023/04/21 04:50:54;;;;;;;15.37;11.13;;;;;;;;;;4975421;28;20543;-69
2023/04/21 04:53:58;;;;;;;14.57;10.80;;;;;;;;;;4975228;28;20179;-69
2023/04/21 04:57:02;;;;;;;15.60;11.20;;;;;;;;;;4985669;28;20175;-70
2023/04/21 05:00:10;;;;;;;13.50;11.23;;;;;;;;;;4975199;28;20179;-69
2023/04/21 05:03:14;;;;;;;16.57;11.87;;;;;;;;;;4974087;28;20182;-69
2023/04/21 05:06:18;;;;;;;13.93;10.93;;;;;;;;;;4974257;28;20210;-69
2023/04/21 05:09:22;;;;;;;12.97;10.10;;;;;;;;;;4974676;28;20178;-69
2023/04/21 05:12:27;;;;;;;58.13;33.23;;;;;;;;;;4974640;28;20218;-69
2023/04/21 05:15:30;;;;;;;35.83;22.53;;;;;;;;;;4974920;28;20199;-70
2023/04/21 05:18:34;;;;;;;30.97;20.07;;;;;;;;;;4974713;28;20179;-69
2023/04/21 05:21:38;;;;;;;19.87;13.93;;;;;;;;;;4973820;28;20214;-69
2023/04/21 05:24:43;;;;;;;15.23;12.90;;;;;;;;;;4974824;28;20178;-69
2023/04/21 05:27:47;;;;;;;17.77;11.17;;;;;;;;;;4974504;28;20175;-70
2023/04/21 05:30:51;;;;;;;20.60;16.70;;;;;;;;;;4974244;28;20226;-70
2023/04/21 05:33:55;;;;;;;103.80;71.07;;;;;;;;;;4974737;28;20179;-70
2023/04/21 05:36:59;;;;;;;31.67;25.47;;;;;;;;;;4973599;28;20183;-70
2023/04/21 05:40:04;;;;;;;21.57;14.57;;;;;;;;;;4984699;28;20179;-70
2023/04/21 05:43:10;;;;;;;17.87;13.30;;;;;;;;;;4974591;28;20222;-70
2023/04/21 05:46:14;;;;;;;19.33;12.93;;;;;;;;;;4973542;28;20559;-70
2023/04/21 05:49:18;;;;;;;16.93;12.90;;;;;;;;;;4984476;28;20198;-70
2023/04/21 05:52:22;;;;;;;21.40;13.87;;;;;;;;;;4974211;28;20218;-70
2023/04/21 05:55:27;;;;;;;21.37;15.00;;;;;;;;;;4974477;28;20623;-70
2023/04/21 05:58:33;;;;;;;18.13;14.00;;;;;;;;;;4984484;28;20183;-70
2023/04/21 06:01:37;;;;;;;22.40;15.53;;;;;;;;;;4973525;28;20555;-70
2023/04/21 06:04:41;;;;;;;21.73;15.00;;;;;;;;;;4984397;28;20175;-70
2023/04/21 06:07:45;;;;;;;20.97;15.17;;;;;;;;;;4973983;28;20183;-69
2023/04/21 06:10:49;;;;;;;20.77;15.50;;;;;;;;;;4973382;28;20214;-70
2023/04/21 06:13:57;;;;;;;23.73;17.07;;;;;;;;;;4973879;28;20179;-70
2023/04/21 06:17:01;;;;;;;21.40;16.47;;;;;;;;;;4973877;28;20188;-70
2023/04/21 06:20:07;;;;;;;23.73;16.73;;;;;;;;;;4973341;28;20171;-70
2023/04/21 06:23:11;;;;;;;21.17;15.03;;;;;;;;;;4973193;28;20342;-69
2023/04/21 06:26:15;;;;;;;21.10;15.73;;;;;;;;;;4984495;28;20215;-70
2023/04/21 06:29:19;;;;;;;17.27;13.67;;;;;;;;;;4973383;28;20179;-70
2023/04/21 06:32:24;;;;;;;16.73;13.60;;;;;;;;;;4973818;28;20222;-70
2023/04/21 06:35:28;;;;;;;16.23;13.37;;;;;;;;;;4973349;28;20183;-70
2023/04/21 06:38:32;;;;;;;16.73;13.70;;;;;;;;;;4973795;28;20210;-70
2023/04/21 06:41:35;;;;;;;18.87;13.73;;;;;;;;;;4984236;28;20218;-70
2023/04/21 06:44:40;;;;;;;20.43;14.43;;;;;;;;;;4987966;28;20198;-70
2023/04/21 06:47:45;;;;;;;15.43;13.60;;;;;;;;;;4977318;28;20191;-70
2023/04/21 06:50:49;;;;;;;16.53;13.27;;;;;;;;;;4977209;28;20222;-69
2023/04/21 06:53:53;;;;;;;20.00;14.53;;;;;;;;;;5020027;22;20228;-74
2023/04/21 06:56:57;;;;;;;18.00;14.33;;;;;;;;;;5024102;28;20631;-74
2023/04/21 07:00:04;;;;;;;17.43;14.40;;;;;;;;;;5012583;28;20192;-73
2023/04/21 07:03:08;;;;;;;18.37;13.80;;;;;;;;;;5016703;28;20181;-73
2023/04/21 07:06:12;;;;;;;18.53;13.93;;;;;;;;;;5016327;28;20209;-73
2023/04/21 07:09:17;;;;;;;17.87;13.37;;;;;;;;;;5004019;28;20197;-73
2023/04/21 07:12:21;;;;;;;16.87;14.27;;;;;;;;;;5004119;28;20228;-73
2023/04/21 07:15:25;;;;;;;21.13;14.83;;;;;;;;;;5016039;28;20667;-73
2023/04/21 07:18:29;;;;;;;18.23;13.20;;;;;;;;;;5004112;28;20188;-73
2023/04/21 07:21:35;;;;;;;16.77;14.47;;;;;;;;;;5003882;28;20250;-73
2023/04/21 07:24:39;;;;;;;16.27;13.23;;;;;;;;;;5016032;28;20196;-73
2023/04/21 07:27:43;;;;;;;16.73;13.40;;;;;;;;;;5015935;28;20221;-73
2023/04/21 07:30:47;;;;;;;16.63;13.93;;;;;;;;;;5015590;28;20224;-74
2023/04/21 07:33:51;;;;;;;17.00;14.23;;;;;;;;;;5003865;28;20536;-73
2023/04/21 07:36:55;;;;;;;19.47;14.40;;;;;;;;;;5014974;28;20184;-73
2023/04/21 07:39:59;;;;;;;17.63;14.07;;;;;;;;;;5015787;28;20190;-74
2023/04/21 07:43:03;;;;;;;18.50;14.60;;;;;;;;;;5015642;28;20181;-74
2023/04/21 07:46:07;;;;;;;16.40;13.17;;;;;;;;;;5015528;28;20205;-73
2023/04/21 07:49:11;;;;;;;15.90;13.20;;;;;;;;;;5015602;28;20253;-73
2023/04/21 07:52:15;;;;;;;19.87;14.33;;;;;;;;;;5015251;28;20244;-73
2023/04/21 07:55:20;;;;;;;19.43;14.40;;;;;;;;;;5015415;28;20244;-73
2023/04/21 07:58:24;;;;;;;17.33;13.37;;;;;;;;;;5015412;28;20178;-73
2023/04/21 08:01:28;;;;;;;15.93;12.80;;;;;;;;;;5015119;28;20217;-73
2023/04/21 08:04:32;;;;;;;17.93;14.07;;;;;;;;;;5014505;28;20184;-73
2023/04/21 08:07:37;;;;;;;18.17;13.23;;;;;;;;;;4991506;28;20584;-73
2023/04/21 08:10:41;;;;;;;17.60;13.43;;;;;;;;;;5002896;28;20241;-73
2023/04/21 08:13:46;;;;;;;17.80;10.90;;;;;;;;;;5002774;28;20189;-73
2023/04/21 08:16:50;;;;;;;16.33;12.77;;;;;;;;;;5014736;28;20185;-73
2023/04/21 08:19:54;;;;;;;15.80;12.60;;;;;;;;;;5013951;28;20177;-74
2023/04/21 08:22:58;;;;;;;17.10;13.23;;;;;;;;;;5014615;28;20196;-74
2023/04/21 08:26:02;;;;;;;14.40;12.33;;;;;;;;;;5014507;28;20218;-73
2023/04/21 08:29:09;;;;;;;12.00;9.83;;;;;;;;;;4991542;28;20186;-74
2023/04/21 08:32:13;;;;;;;14.77;12.00;;;;;;;;;;5013667;28;20213;-74
2023/04/21 08:35:17;;;;;;;13.83;11.30;;;;;;;;;;5014447;28;20204;-74
2023/04/21 08:38:21;;;;;;;12.97;10.47;;;;;;;;;;5002379;28;20544;-74
2023/04/21 08:41:26;;;;;;;18.10;11.63;;;;;;;;;;5014903;28;20299;-74
2023/04/21 08:44:30;;;;;;;13.90;11.53;;;;;;;;;;5002686;28;20660;-75
2023/04/21 08:47:37;;;;;;;17.63;12.73;;;;;;;;;;5014209;28;20221;-74
2023/04/21 08:50:45;;;;;;;14.03;9.93;;;;;;;;;;5014338;28;20213;-74
2023/04/21 08:53:49;;;;;;;12.77;10.80;;;;;;;;;;5014430;28;20201;-74
2023/04/21 08:56:53;;;;;;;11.50;9.60;;;;;;;;;;5002284;28;20174;-74
2023/04/21 08:59:57;;;;;;;12.40;10.47;;;;;;;;;;5014251;28;20178;-74
2023/04/21 09:03:04;;;;;;;10.83;9.73;;;;;;;;;;5014259;28;20194;-74
2023/04/21 09:06:09;;;;;;;12.77;9.97;;;;;;;;;;5013166;28;20201;-74
2023/04/21 09:09:12;;;;;;;11.60;9.90;;;;;;;;;;5002042;28;20182;-74
2023/04/21 09:12:18;;;;;;;10.47;9.37;;;;;;;;;;5014040;28;20217;-74
2023/04/21 09:15:22;;;;;;;11.50;10.30;;;;;;;;;;5013789;28;20174;-74
2023/04/21 09:18:34;;;;;;;12.77;10.00;;;;;;;;;;5013749;28;20184;-74
2023/04/21 09:21:42;;;;;;;13.73;10.47;;;;;;;;;;5013827;28;20225;-74
2023/04/21 09:24:47;;;;;;;12.33;10.20;;;;;;;;;;5001848;28;20192;-74
2023/04/21 09:27:52;;;;;;;12.13;9.97;;;;;;;;;;5013776;28;20216;-74
2023/04/21 09:30:56;;;;;;;13.23;10.60;;;;;;;;;;5013554;28;20225;-74
2023/04/21 09:34:01;;;;;;;12.50;9.90;;;;;;;;;;5013797;28;20184;-74
2023/04/21 09:37:05;;;;;;;14.40;11.33;;;;;;;;;;5012713;28;20541;-74
2023/04/21 09:40:14;;;;;;;14.33;11.47;;;;;;;;;;5001771;28;20204;-74
2023/04/21 09:43:18;;;;;;;13.13;10.60;;;;;;;;;;5013998;28;20520;-74
2023/04/21 09:46:23;;;;;;;13.50;11.00;;;;;;;;;;5001413;28;20200;-74
2023/04/21 09:49:29;;;;;;;13.87;10.93;;;;;;;;;;5013430;28;20187;-74
2023/04/21 09:52:37;;;;;;;12.10;10.10;;;;;;;;;;5013060;28;20228;-75
2023/04/21 09:55:42;;;;;;;12.03;10.43;;;;;;;;;;5013883;28;20204;-74
2023/04/21 09:58:51;;;;;;;11.13;9.57;;;;;;;;;;5013380;28;20637;-74
2023/04/21 10:01:58;;;;;;;12.27;9.93;;;;;;;;;;5001035;28;20213;-74
2023/04/21 10:05:05;;;;;;;14.73;10.13;;;;;;;;;;5001020;28;20193;-74
2023/04/21 10:08:10;;;;;;;13.10;10.13;;;;;;;;;;5013131;28;20217;-75
2023/04/21 10:11:14;;;;;;;16.47;10.60;;;;;;;;;;5013255;28;20224;-74
2023/04/21 10:14:19;;;;;;;11.60;9.73;;;;;;;;;;5001567;28;20195;-74
2023/04/21 10:17:24;;;;;;;13.03;9.27;;;;;;;;;;5004648;28;20175;-75
2023/04/21 10:20:29;;;;;;;11.33;10.07;;;;;;;;;;5004730;28;20197;-75
2023/04/21 10:23:36;;;;;;;11.50;9.70;;;;;;;;;;5016830;28;20285;-74
2023/04/21 10:26:40;;;;;;;11.87;9.23;;;;;;;;;;5016735;28;20700;-75
2023/04/21 10:29:45;;;;;;;10.90;9.13;;;;;;;;;;5017103;28;20642;-75
2023/04/21 10:33:02;;;;;;;10.13;8.97;;;;;;;;;;5004690;28;20654;-75
2023/04/21 10:36:10;;;;;;;10.83;8.97;;;;;;;;;;5016930;28;20188;-75
2023/04/21 10:39:30;;;;;;;11.57;9.60;;;;;;;;;;5016985;28;20183;-75
2023/04/21 10:42:38;;;;;;;9.13;8.17;;;;;;;;;;5004345;28;20695;-75
2023/04/21 10:45:44;;;;;;;9.50;8.43;;;;;;;;;;5016466;28;20188;-75
2023/04/21 10:48:52;;;;;;;11.63;8.73;;;;;;;;;;5016409;28;20689;-75
2023/04/21 10:55:05;;;;;;;11.60;7.17;;;;;;;;;;5016227;28;20210;-74
2023/04/21 10:58:09;;;;;;;7.73;6.93;;;;;;;;;;5016272;28;20195;-75
2023/04/21 11:01:14;;;;;;;9.57;7.87;;;;;;;;;;5016376;28;20222;-75
2023/04/21 11:04:19;;;;;;;8.43;7.60;;;;;;;;;;5004047;28;20196;-75
2023/04/21 11:07:24;;;;;;;9.10;6.90;;;;;;;;;;5016013;28;20227;-74
2023/04/21 11:10:28;;;;;;;6.07;5.05;;;;;;;;;;5004142;28;20204;-75
2023/04/21 11:13:33;;;;;;;5.43;4.43;;;;;;;;;;5015211;28;20576;-75
2023/04/21 11:16:41;;;;;;;7.70;5.60;;;;;;;;;;5015950;28;20183;-75
2023/04/21 11:19:47;;;;;;;5.95;5.20;;;;;;;;;;5016106;28;20183;-75
2023/04/21 11:22:55;;;;;;;5.57;4.75;;;;;;;;;;5015982;28;20198;-76
2023/04/21 11:25:59;;;;;;;7.70;5.20;;;;;;;;;;5015652;28;20181;-74
2023/04/21 11:29:05;;;;;;;4.68;4.18;;;;;;;;;;5015140;28;20645;-73
2023/04/21 11:32:10;;;;;;;7.18;5.03;;;;;;;;;;5014841;28;20214;-74
2023/04/21 11:35:14;;;;;;;9.55;5.95;;;;;;;;;;5015626;28;20653;-73
2023/04/21 11:38:19;;;;;;;6.47;5.35;;;;;;;;;;5015691;28;20180;-73
2023/04/21 11:41:23;;;;;;;5.78;4.55;;;;;;;;;;5015438;28;20219;-73
2023/04/21 11:44:34;;;;;;;5.97;5.38;;;;;;;;;;5015716;28;20186;-73
2023/04/21 11:47:38;;;;;;;7.03;5.93;;;;;;;;;;5003519;28;20219;-74
2023/04/21 11:50:47;;;;;;;7.50;5.60;;;;;;;;;;5003422;28;20684;-73
2023/04/21 11:53:51;;;;;;;5.90;5.30;;;;;;;;;;5015172;28;20207;-73
2023/04/21 11:56:55;;;;;;;6.60;5.20;;;;;;;;;;5003678;28;20182;-73
2023/04/21 12:00:03;;;;;;;4.97;4.47;;;;;;;;;;5003261;28;20628;-73
2023/04/21 12:03:09;;;;;;;5.47;4.23;;;;;;;;;;5015006;28;20196;-72
2023/04/21 12:06:22;;;;;;;5.30;4.53;;;;;;;;;;5015309;28;20190;-72
2023/04/21 12:09:28;;;;;;;6.23;4.83;;;;;;;;;;5015310;28;20177;-72
2023/04/21 12:12:36;;;;;;;6.40;3.60;;;;;;;;;;5015082;28;20703;-73
2023/04/21 12:15:43;;;;;;;5.10;3.80;;;;;;;;;;5002756;28;20185;-73
2023/04/21 12:18:48;;;;;;;4.80;3.67;;;;;;;;;;5015095;28;20182;-72
2023/04/21 12:21:55;;;;;;;4.03;3.63;;;;;;;;;;5014685;28;20220;-73
2023/04/21 12:24:59;;;;;;;4.40;3.80;;;;;;;;;;5014924;28;20185;-73
2023/04/21 12:28:07;;;;;;;6.83;3.67;;;;;;;;;;5014055;28;20215;-73
2023/04/21 12:31:11;;;;;;;6.17;4.13;;;;;;;;;;5002497;28;20221;-73
2023/04/21 12:34:15;;;;;;;5.17;3.40;;;;;;;;;;5014429;28;20188;-72
2023/04/21 12:37:19;;;;;;;5.10;3.83;;;;;;;;;;5014677;28;20194;-73
2023/04/21 12:40:24;;;;;;;5.20;4.63;;;;;;;;;;5013942;28;20180;-72
2023/04/21 12:43:28;;;;;;;6.38;4.22;;;;;;;;;;5014777;28;20190;-72
2023/04/21 12:46:32;;;;;;;8.55;4.63;;;;;;;;;;5014647;28;20185;-73
2023/04/21 12:49:36;;;;;;;5.78;4.05;;;;;;;;;;5014370;28;20183;-73
2023/04/21 12:52:41;;;;;;;5.25;4.10;;;;;;;;;;5013286;28;20689;-73
2023/04/21 12:55:45;;;;;;;4.00;3.60;;;;;;;;;;5002270;28;20671;-73
2023/04/21 12:58:49;;;;;;;3.15;2.85;;;;;;;;;;5013786;28;20184;-74
2023/04/21 13:01:53;;;;;;;6.88;3.47;;;;;;;;;;5001926;28;20228;-73
2023/04/21 13:04:57;;;;;;;3.33;3.03;;;;;;;;;;5002216;28;20182;-73
2023/04/21 13:08:01;;;;;;;3.50;3.00;;;;;;;;;;4990664;28;20210;-73
2023/04/21 13:11:05;;;;;;;2.87;2.40;;;;;;;;;;5014038;28;20212;-72
2023/04/21 13:14:09;;;;;;;2.97;2.50;;;;;;;;;;5001729;28;20202;-73
2023/04/21 13:17:14;;;;;;;4.67;2.63;;;;;;;;;;5014065;28;20199;-73
2023/04/21 13:20:19;;;;;;;2.73;2.17;;;;;;;;;;5002009;28;20188;-72
2023/04/21 13:23:23;;;;;;;2.23;2.00;;;;;;;;;;5013905;28;20179;-73
2023/04/21 13:26:27;;;;;;;1.73;1.63;;;;;;;;;;5013801;28;20179;-73
2023/04/21 13:29:33;;;;;;;3.00;1.77;;;;;;;;;;5001590;28;20216;-73
2023/04/21 13:32:38;;;;;;;2.47;1.70;;;;;;;;;;4990198;28;20559;-73
2023/04/21 13:35:42;;;;;;;2.97;1.77;;;;;;;;;;5013485;28;20198;-73
2023/04/21 13:38:47;;;;;;;2.63;1.70;;;;;;;;;;5013799;28;20182;-73
2023/04/21 13:41:51;;;;;;;2.50;2.20;;;;;;;;;;5001234;28;20217;-73
2023/04/21 13:44:56;;;;;;;3.00;1.70;;;;;;;;;;5013873;28;20197;-73
2023/04/21 13:48:00;;;;;;;2.67;1.87;;;;;;;;;;5013267;28;20221;-73
2023/04/21 13:51:04;;;;;;;2.20;1.67;;;;;;;;;;5013089;28;20214;-73
2023/04/21 13:54:08;;;;;;;2.83;1.63;;;;;;;;;;5013292;28;20211;-73
2023/04/21 13:57:13;;;;;;;3.03;1.90;;;;;;;;;;5012761;28;20201;-73
2023/04/21 14:00:17;;;;;;;2.10;1.90;;;;;;;;;;5013335;28;20185;-72
2023/04/21 14:03:21;;;;;;;2.33;2.10;;;;;;;;;;5013319;28;20191;-72
2023/04/21 14:06:26;;;;;;;3.13;2.00;;;;;;;;;;5013367;28;20188;-72
2023/04/21 14:09:30;;;;;;;2.80;2.30;;;;;;;;;;5013587;28;20214;-72
2023/04/21 14:12:34;;;;;;;2.00;1.80;;;;;;;;;;5013127;28;20221;-72
2023/04/21 14:15:39;;;;;;;1.93;1.20;;;;;;;;;;5013121;28;20649;-72
2023/04/21 14:18:44;;;;;;;1.47;1.00;;;;;;;;;;5013331;28;20182;-73
2023/04/21 14:21:48;;;;;;;1.93;1.20;;;;;;;;;;5001081;28;20226;-72
2023/04/21 14:24:53;;;;;;;4.23;1.10;;;;;;;;;;5013244;28;20175;-72
2023/04/21 14:27:57;;;;;;;2.07;1.10;;;;;;;;;;5013247;28;20537;-72
2023/04/21 14:31:01;;;;;;;2.07;1.40;;;;;;;;;;5012933;28;20570;-72
2023/04/21 14:34:05;;;;;;;1.40;1.30;;;;;;;;;;5001144;28;20179;-72
2023/04/21 14:37:09;;;;;;;1.87;1.30;;;;;;;;;;5013055;28;20537;-72
2023/04/21 14:40:13;;;;;;;2.27;1.60;;;;;;;;;;5012322;28;20177;-73
2023/04/21 14:43:17;;;;;;;1.57;1.43;;;;;;;;;;5012364;28;20180;-73
2023/04/21 14:46:21;;;;;;;1.80;1.40;;;;;;;;;;5013049;28;20180;-73
2023/04/21 14:49:25;;;;;;;1.90;1.80;;;;;;;;;;5013011;28;20202;-73
2023/04/21 14:52:30;;;;;;;1.57;1.47;;;;;;;;;;5012746;28;20554;-72
2023/04/21 14:55:34;;;;;;;2.37;1.50;;;;;;;;;;5013023;28;20180;-73
2023/04/21 14:58:38;;;;;;;1.90;1.37;;;;;;;;;;5013286;28;20190;-73
2023/04/21 15:01:42;;;;;;;3.27;1.30;;;;;;;;;;5000849;28;20215;-72
2023/04/21 15:04:46;;;;;;;2.33;1.47;;;;;;;;;;5016309;28;20178;-73
2023/04/21 15:07:50;;;;;;;1.90;1.30;;;;;;;;;;5016219;28;20515;-73
2023/04/21 15:10:55;;;;;;;1.63;1.47;;;;;;;;;;5016251;28;20211;-73
2023/04/21 15:14:00;;;;;;;3.30;2.50;;;;;;;;;;5004443;28;20181;-73
2023/04/21 15:17:04;;;;;;;10.87;6.67;;;;;;;;;;5015952;28;20189;-72
2023/04/21 15:20:09;;;;;;;28.03;16.87;;;;;;;;;;5004138;28;20180;-72
2023/04/21 15:23:13;;;;;;;2.53;2.20;;;;;;;;;;5000851;28;20265;-72
2023/04/21 15:26:17;;;;;;;2.97;2.07;;;;;;;;;;5005547;28;20539;-72
2023/04/21 15:29:21;;;;;;;2.80;2.13;;;;;;;;;;4990870;28;20553;-72
2023/04/21 15:32:25;;;;;;;5.53;1.60;;;;;;;;;;4997840;28;20681;-72
2023/04/21 15:35:30;;;;;;;2.73;1.70;;;;;;;;;;4991556;28;20190;-72
2023/04/21 15:38:34;;;;;;;2.40;1.70;;;;;;;;;;5004128;28;20182;-73
2023/04/21 15:41:39;;;;;;;3.23;1.70;;;;;;;;;;4991502;28;20213;-72
2023/04/21 15:44:45;;;;;;;2.50;2.17;;;;;;;;;;5006141;28;20523;-73
2023/04/21 15:47:49;;;;;;;2.27;1.70;;;;;;;;;;4995782;28;20649;-73
2023/04/21 15:50:55;;;;;;;2.03;1.27;;;;;;;;;;4994802;28;20210;-72
2023/04/21 15:53:59;;;;;;;1.80;1.50;;;;;;;;;;4983608;28;20213;-73
2023/04/21 15:57:04;;;;;;;2.50;2.10;;;;;;;;;;4994506;28;20542;-72
2023/04/21 16:00:09;;;;;;;1.60;1.50;;;;;;;;;;4994800;28;20178;-73
2023/04/21 16:03:13;;;;;;;1.40;1.30;;;;;;;;;;4994596;28;20178;-73
2023/04/21 16:06:19;;;;;;;2.37;1.53;;;;;;;;;;4995667;28;20178;-73
2023/04/21 16:09:23;;;;;;;1.50;1.40;;;;;;;;;;4995160;28;20226;-73
2023/04/21 16:12:27;;;;;;;1.50;1.20;;;;;;;;;;4995300;28;20210;-72
2023/04/21 16:15:32;;;;;;;3.23;1.70;;;;;;;;;;4982994;28;20187;-72
2023/04/21 16:18:36;;;;;;;2.00;1.20;;;;;;;;;;4983319;28;20182;-72
2023/04/21 16:21:41;;;;;;;1.27;1.17;;;;;;;;;;4995089;28;20218;-72
2023/04/21 16:24:45;;;;;;;1.30;1.20;;;;;;;;;;4997737;28;20190;-72
2023/04/21 16:27:49;;;;;;;1.30;1.20;;;;;;;;;;5005364;28;20261;-73
2023/04/21 16:30:53;;;;;;;1.90;1.27;;;;;;;;;;4998011;28;20213;-72
2023/04/21 16:33:58;;;;;;;1.27;1.17;;;;;;;;;;5004350;28;20190;-72
2023/04/21 16:37:02;;;;;;;2.67;1.30;;;;;;;;;;5002564;28;20644;-73
2023/04/21 16:40:08;;;;;;;3.73;1.40;;;;;;;;;;5014506;28;20637;-72
2023/04/21 16:43:12;;;;;;;2.13;1.30;;;;;;;;;;5013778;28;20177;-72
2023/04/21 16:46:16;;;;;;;2.07;1.40;;;;;;;;;;5013381;28;20182;-73
2023/04/21 16:49:21;;;;;;;1.27;1.03;;;;;;;;;;5013592;28;20224;-73
2023/04/21 16:52:25;;;;;;;1.87;1.50;;;;;;;;;;5014082;28;20220;-72
2023/04/21 16:55:30;;;;;;;2.47;1.73;;;;;;;;;;5002014;28;20182;-72
2023/04/21 16:58:35;;;;;;;7.10;3.07;;;;;;;;;;5013961;28;20198;-73
2023/04/21 17:01:39;;;;;;;1.80;1.60;;;;;;;;;;5013962;28;20225;-73
2023/04/21 17:04:43;;;;;;;7.50;4.00;;;;;;;;;;5001908;28;20197;-73
2023/04/21 17:07:48;;;;;;;4.07;1.50;;;;;;;;;;5013862;28;20197;-73
2023/04/21 17:10:54;;;;;;;2.00;1.20;;;;;;;;;;5001898;28;20217;-72
2023/04/21 17:13:58;;;;;;;16.20;9.10;;;;;;;;;;4990565;28;20518;-72
2023/04/21 17:17:02;;;;;;;4.90;2.83;;;;;;;;;;5013664;28;20201;-72
2023/04/21 17:20:08;;;;;;;21.40;12.17;;;;;;;;;;5014232;28;20177;-73
2023/04/21 17:23:12;;;;;;;28.80;16.27;;;;;;;;;;5013705;28;20189;-73
2023/04/21 17:26:17;;;;;;;15.10;9.50;;;;;;;;;;5013123;28;20208;-73
2023/04/21 17:29:21;;;;;;;25.13;15.97;;;;;;;;;;5013615;28;20699;-72
2023/04/21 17:32:25;;;;;;;14.93;10.53;;;;;;;;;;5001378;28;20232;-73
2023/04/21 17:35:29;;;;;;;6.30;4.90;;;;;;;;;;5013790;28;20655;-72
2023/04/21 17:38:33;;;;;;;3.50;3.10;;;;;;;;;;5013416;28;20185;-72
2023/04/21 17:41:37;;;;;;;3.50;2.90;;;;;;;;;;5013198;28;20209;-72
2023/04/21 17:44:41;;;;;;;4.63;2.57;;;;;;;;;;5013635;28;20181;-72
2023/04/21 17:47:45;;;;;;;1.93;1.60;;;;;;;;;;5012493;28;20178;-72
2023/04/21 17:50:49;;;;;;;4.13;1.67;;;;;;;;;;5012646;28;20237;-72
2023/04/21 17:53:53;;;;;;;3.37;1.70;;;;;;;;;;5013174;28;20205;-73
2023/04/21 17:56:57;;;;;;;3.10;1.70;;;;;;;;;;5013494;28;20181;-72
2023/04/21 18:00:05;;;;;;;1.93;1.50;;;;;;;;;;5001196;28;20601;-72
2023/04/21 18:03:10;;;;;;;2.63;1.50;;;;;;;;;;5001342;28;20178;-73
2023/04/21 18:06:14;;;;;;;3.30;1.80;;;;;;;;;;5012964;28;20182;-72
2023/04/21 18:09:19;;;;;;;3.93;1.30;;;;;;;;;;5012876;28;20208;-73
2023/04/21 18:12:24;;;;;;;3.90;1.40;;;;;;;;;;5001248;28;20217;-72